Point Lay, AK

1:07 PM AKDT on September 25, 2016 (GMT -0800)
Point Lay | | Change Station

Elev 23 ft 69.73 °N, 163.01 °W | Updated 11 minutes ago

Light Rain
Light Rain
34 °F
Feels Like 22 °F
N
22
Wind Variable Wind from SSW

Today
High -- | Low -- °F
--% Chance of Precip.
Yesterday
High -- | Low -- °F
Precip. -- in
Pressure 29.75 in
Visibility 10.0 miles
Clouds Mostly Cloudy 1000 ft
Mostly Cloudy 1600 ft
Overcast 4800 ft
Windchill 22 °F
Dew Point 31 °F
Humidity 89%
Rainfall 0.03 in
Snow Depth Not available.
8:46 AM 8:37 PM
Waning Crescent, 25% visible
METAR PPIZ 252056Z AUTO 20019KT 10SM -RA BKN010 BKN016 OVC048 01/M01 A2974 RMK AO2 RAB16SNE16 CIG 008V013 SLP075 P0000 60000 T00111006 52005 FZRANO TSNO
Pressure 29.75 in
Visibility 10.0 miles
Clouds Mostly Cloudy 1000 ft
Mostly Cloudy 1600 ft
Overcast 4800 ft
Windchill 22 °F
Dew Point 31 °F
Humidity 89%
Rainfall 0.03 in
Snow Depth Not available.
8:46 AM 8:37 PM
Waning Crescent, 25% visible
METAR PPIZ 252056Z AUTO 20019KT 10SM -RA BKN010 BKN016 OVC048 01/M01 A2974 RMK AO2 RAB16SNE16 CIG 008V013 SLP075 P0000 60000 T00111006 52005 FZRANO TSNO

10-Day Weather Forecast

Almanac

Astronomy

Sep. 25, 2016 Rise Set
Actual Time
Civil Twilight
Nautical Twilight
Astronomical Twilight
Moon
Length of Visible Light
Length of Day
Tomorrow will be .
, % of the Moon is Illuminated

Today's Extremes

State Highs State Lows

Community

WunderPhotos

Upload Photos

1,941,731 photos uploaded!

WunderBlog® & News

Nearby

Air Quality

  Air Quality AQ Index Pollutant
Not available.

Snow Depth

Station Depth Elevation

Earthquake Activity

City Distance Mag. Time & Date
Minimum magnitude displayed is 2.5.

Coastal Water Temperatures

Place Temperature

Stations

Nearby Weather Stations

Station Location Temp. Windchill Dew Point Humidity Wind Precip. Elev Updated Type
                   

Watches & Warnings

There are currently no watches in effect.